Time;durP1;ratioP1;P1;durP2;ratioP2;P2;SDS_P1;SDS_P2;PMS_P1;PMS_P2;Temp;Humidity;BMP_temperature;BMP_pressure;BME280_temperature;BME280_humidity;BME280_pressure;Samples;Min_cycle;Max_cycle;Signal;HPM_P1;HPM_P2
2020/12/14 00:00:38;;;;;;;6.57;2.40;;;8.50;82.10;;;7.92;69.49;99761.25;4969657;28;20150;-84
2020/12/14 00:03:05;;;;;;;9.05;2.90;;;8.50;82.00;;;7.98;69.59;99766.78;4954826;28;20122;-84
2020/12/14 00:05:32;;;;;;;7.45;2.97;;;8.50;81.80;;;8.01;70.08;99760.16;4954498;28;20141;-84
2020/12/14 00:07:59;;;;;;;8.13;3.03;;;8.50;82.20;;;8.09;70.35;99742.97;4954519;28;20141;-85
2020/12/14 00:10:26;;;;;;;8.35;2.97;;;8.50;82.50;;;8.08;69.46;99750.25;4954484;28;20067;-85
2020/12/14 00:12:54;;;;;;;5.95;2.60;;;8.50;82.10;;;8.03;69.18;99760.81;4954523;28;20035;-84
2020/12/14 00:15:21;;;;;;;9.55;2.60;;;8.50;81.90;;;8.03;69.06;99760.81;4954510;28;20058;-84
2020/12/14 00:17:50;;;;;;;6.68;2.45;;;8.50;81.20;;;8.01;68.17;99758.31;4954515;28;20126;-84
2020/12/14 00:20:17;;;;;;;5.65;2.42;;;8.50;81.00;;;8.07;69.85;99753.97;4954547;28;20146;-84
2020/12/14 00:22:43;;;;;;;6.18;2.30;;;8.50;82.00;;;8.01;67.79;99765.56;4954852;28;20373;-85
2020/12/14 00:25:10;;;;;;;10.77;2.80;;;8.50;80.60;;;8.06;69.92;99759.59;4953720;28;20134;-84
2020/12/14 00:27:37;;;;;;;8.43;2.47;;;8.70;81.40;;;8.08;69.57;99755.69;4953830;28;20073;-84
2020/12/14 00:30:04;;;;;;;7.78;2.45;;;8.50;81.50;;;8.10;69.14;99759.03;4964196;28;20506;-85
2020/12/14 00:32:31;;;;;;;4.68;2.40;;;8.50;81.40;;;8.12;68.94;99764.28;4971337;28;20352;-85
2020/12/14 00:34:58;;;;;;;9.57;2.53;;;8.50;81.90;;;8.12;69.19;99765.09;4969730;28;20070;-85
2020/12/14 00:37:25;;;;;;;8.77;2.50;;;8.60;81.40;;;8.11;68.78;99755.31;4968956;28;20055;-85
2020/12/14 00:39:52;;;;;;;8.57;2.42;;;8.60;81.60;;;8.10;69.27;99753.63;4967415;28;20070;-86
2020/12/14 00:42:19;;;;;;;7.53;2.38;;;8.60;81.10;;;8.03;67.57;99758.09;4980986;28;20051;-85
2020/12/14 00:44:45;;;;;;;6.32;2.30;;;8.60;80.10;;;8.08;69.32;99758.38;4962537;28;20049;-84
2020/12/14 00:47:12;;;;;;;7.05;2.15;;;8.60;81.20;;;8.10;68.96;99756.31;4953780;28;20538;-84
2020/12/14 00:49:39;;;;;;;7.88;2.30;;;8.70;81.20;;;8.14;68.83;99749.50;4952402;28;20323;-84
2020/12/14 00:52:07;;;;;;;10.32;2.92;;;8.80;81.40;;;8.15;68.97;99751.19;4953776;28;20159;-84
2020/12/14 00:54:34;;;;;;;5.38;2.35;;;8.70;81.30;;;8.20;69.37;99737.91;4953243;28;20066;-84
2020/12/14 00:57:00;;;;;;;8.50;2.50;;;8.60;81.70;;;8.13;68.43;99737.00;4975553;28;20070;-84
2020/12/14 00:59:27;;;;;;;4.82;2.05;;;8.70;80.80;;;8.11;68.26;99736.34;4971521;28;20472;-84
2020/12/14 01:01:54;;;;;;;7.53;2.35;;;8.70;80.80;;;8.14;68.55;99725.09;4972749;28;20039;-84
2020/12/14 01:04:21;;;;;;;7.32;2.30;;;8.70;81.10;;;8.21;69.17;99727.91;4972875;28;20135;-84
2020/12/14 01:06:52;;;;;;;9.07;2.53;;;8.70;81.60;;;8.20;68.91;99727.06;4972914;28;20444;-84
2020/12/14 01:09:20;;;;;;;8.23;2.50;;;8.70;81.40;;;8.19;68.71;99722.69;4972834;28;20042;-84
2020/12/14 01:11:46;;;;;;;8.80;2.42;;;8.70;81.10;;;8.22;69.00;99714.19;4971573;28;20078;-84
2020/12/14 01:14:13;;;;;;;9.85;2.10;;;8.70;81.20;;;8.23;68.94;99726.69;4972522;28;20139;-85
2020/12/14 01:16:40;;;;;;;7.28;2.33;;;8.70;81.00;;;8.21;68.01;99715.19;4971475;28;20150;-85
2020/12/14 01:19:07;;;;;;;8.20;2.28;;;8.80;80.00;;;8.25;69.34;99709.41;4972576;28;20407;-84
2020/12/14 01:21:33;;;;;;;7.47;2.20;;;8.70;81.20;;;8.27;68.89;99720.91;4972531;28;20129;-85
2020/12/14 01:24:01;;;;;;;6.40;2.35;;;8.70;81.10;;;8.27;69.63;99704.63;4972366;28;20065;-85
2020/12/14 01:26:28;;;;;;;8.77;2.00;;;8.80;81.30;;;8.26;68.74;99714.63;4972477;28;20141;-84
2020/12/14 01:28:55;;;;;;;6.78;1.92;;;8.80;81.20;;;8.23;68.17;99710.44;4972672;28;20445;-85
2020/12/14 01:31:23;;;;;;;6.78;2.40;;;8.80;80.60;;;8.29;68.84;99721.56;4972455;28;20053;-84
2020/12/14 01:33:50;;;;;;;5.13;2.08;;;8.80;81.10;;;8.28;68.75;99719.84;4971995;28;20215;-85
2020/12/14 01:36:16;;;;;;;8.40;2.28;;;8.80;81.20;;;8.29;68.65;99730.50;4972518;28;20562;-84
2020/12/14 01:38:43;;;;;;;5.72;2.15;;;8.70;81.30;;;8.23;68.44;99721.25;4972720;28;20070;-84
2020/12/14 01:41:10;;;;;;;7.68;2.15;;;8.70;80.80;;;8.28;68.43;99731.56;4972537;28;20212;-84
2020/12/14 01:43:37;;;;;;;7.25;1.90;;;8.70;80.90;;;8.23;67.98;99734.00;4972182;28;20035;-85
2020/12/14 01:46:04;;;;;;;5.05;2.10;;;8.80;80.20;;;8.17;68.21;99738.28;4972457;28;20070;-84
2020/12/14 01:48:31;;;;;;;5.50;1.90;;;8.70;79.80;;;8.15;68.47;99729.50;4972395;28;20120;-84
2020/12/14 01:50:58;;;;;;;6.35;2.20;;;8.80;80.20;;;8.20;69.01;99731.66;4972258;28;20624;-84
2020/12/14 01:53:27;;;;;;;12.05;2.10;;;8.80;80.70;;;8.25;68.60;99731.09;4972280;28;20070;-84
2020/12/14 01:55:55;;;;;;;6.05;1.85;;;8.80;80.40;;;8.24;68.60;99730.22;4972316;28;20137;-84
2020/12/14 01:58:23;;;;;;;9.68;2.10;;;8.80;80.70;;;8.25;69.12;99722.97;4972289;28;20568;-84
2020/12/14 02:00:50;;;;;;;6.50;1.80;;;8.80;80.90;;;8.27;69.06;99718.19;4974167;28;20078;-85
2020/12/14 02:03:18;;;;;;;7.35;2.10;;;8.80;80.70;;;8.28;69.36;99711.72;4975960;28;20062;-85
2020/12/14 02:05:44;;;;;;;5.78;1.60;;;8.80;81.10;;;8.31;68.47;99714.06;4974190;28;20146;-85
2020/12/14 02:08:11;;;;;;;5.90;2.15;;;8.80;80.70;;;8.30;68.41;99717.78;4978772;28;20126;-85
2020/12/14 02:10:38;;;;;;;7.60;2.10;;;8.80;80.80;;;8.31;69.00;99716.78;4979430;28;20211;-85
2020/12/14 02:13:04;;;;;;;6.53;2.00;;;8.80;81.20;;;8.26;67.57;99713.78;4979935;28;20511;-85
2020/12/14 02:15:31;;;;;;;4.47;1.75;;;8.80;80.20;;;8.30;68.88;99715.09;4977311;28;20090;-84
2020/12/14 02:17:59;;;;;;;4.45;1.92;;;8.80;81.20;;;8.31;69.28;99705.94;4976183;28;20074;-85
2020/12/14 02:20:26;;;;;;;12.35;2.40;;;8.80;81.20;;;8.31;69.91;99709.47;4976253;28;20070;-85
2020/12/14 02:22:52;;;;;;;5.13;1.80;;;8.80;81.50;;;8.34;69.70;99710.97;4975828;28;20094;-85
2020/12/14 02:25:20;;;;;;;7.00;1.92;;;8.70;81.20;;;8.33;69.26;99704.69;4975454;28;20459;-85
2020/12/14 02:27:47;;;;;;;7.20;2.00;;;8.80;81.30;;;8.30;68.53;99698.81;4974535;28;20078;-84
2020/12/14 02:30:15;;;;;;;8.13;2.17;;;8.80;81.10;;;8.31;68.92;99689.66;4975839;28;20121;-85
2020/12/14 02:32:41;;;;;;;5.72;1.75;;;8.70;81.00;;;8.29;68.23;99699.88;4975667;28;20439;-84
2020/12/14 02:35:08;;;;;;;6.05;1.80;;;8.80;80.90;;;8.35;68.85;99688.25;4975512;28;20339;-84
2020/12/14 02:37:35;;;;;;;6.35;2.05;;;8.90;81.10;;;8.32;68.85;99692.19;4976077;28;20122;-85
2020/12/14 02:40:02;;;;;;;7.38;1.88;;;8.70;81.30;;;8.32;69.69;99683.19;4975657;28;20078;-84
2020/12/14 02:42:30;;;;;;;8.32;2.28;;;8.70;81.30;;;8.36;69.34;99692.66;4975617;28;20053;-85
2020/12/14 02:44:56;;;;;;;6.85;1.80;;;8.70;81.50;;;8.31;67.95;99689.66;4973808;28;20058;-85
2020/12/14 02:47:23;;;;;;;5.40;1.92;;;8.70;80.90;;;8.30;69.61;99693.41;4975421;28;20509;-84
2020/12/14 02:49:50;;;;;;;6.78;1.70;;;8.70;81.20;;;8.29;68.62;99675.47;4975691;28;20093;-85
2020/12/14 02:52:17;;;;;;;6.18;2.22;;;8.80;81.50;;;8.34;69.09;99679.28;4975338;28;20125;-84
2020/12/14 02:54:45;;;;;;;5.35;1.67;;;8.70;81.50;;;8.30;68.81;99671.72;4975257;28;20113;-84
2020/12/14 02:57:12;;;;;;;9.25;2.00;;;8.70;81.20;;;8.29;69.42;99675.47;4975524;28;20050;-84
2020/12/14 02:59:41;;;;;;;8.52;2.30;;;8.70;81.40;;;8.30;69.20;99677.13;4975395;28;20054;-85
2020/12/14 03:02:07;;;;;;;6.88;1.60;;;8.70;81.20;;;8.32;69.48;99669.66;4973359;28;20078;-84
2020/12/14 03:04:34;;;;;;;4.95;1.52;;;8.70;81.00;;;8.35;69.58;99669.28;4974711;28;20122;-84
2020/12/14 03:07:01;;;;;;;7.18;2.13;;;8.80;81.40;;;8.30;68.57;99661.72;4975120;28;20133;-85
2020/12/14 03:09:28;;;;;;;4.95;1.70;;;8.80;80.80;;;8.35;69.00;99669.28;4975228;28;20082;-84
2020/12/14 03:11:55;;;;;;;11.85;2.08;;;8.70;81.00;;;8.32;68.80;99675.06;4973644;28;20055;-85
2020/12/14 03:14:21;;;;;;;6.63;1.75;;;8.80;81.10;;;8.30;68.70;99672.56;4975030;28;20482;-84
2020/12/14 03:16:51;;;;;;;7.15;1.90;;;8.80;80.90;;;8.26;69.26;99676.66;4975038;28;20126;-84
2020/12/14 03:19:18;;;;;;;4.03;1.50;;;8.90;81.30;;;8.21;68.68;99663.69;4975102;28;20130;-84
2020/12/14 03:21:45;;;;;;;6.82;1.98;;;8.90;80.50;;;8.20;69.47;99659.28;4975124;28;20046;-85
2020/12/14 03:24:12;;;;;;;5.28;1.83;;;8.90;80.80;;;8.26;69.97;99659.56;4974621;28;20480;-85
2020/12/14 03:26:39;;;;;;;9.10;2.20;;;8.90;81.20;;;8.27;69.19;99645.00;4974725;28;20135;-84
2020/12/14 03:29:06;;;;;;;4.32;1.52;;;8.90;81.10;;;8.22;69.96;99657.25;4974672;28;20124;-84
2020/12/14 03:31:33;;;;;;;5.82;1.58;;;8.90;80.90;;;8.23;69.32;99648.09;4974605;28;20113;-84
2020/12/14 03:34:01;;;;;;;8.55;1.95;;;8.90;81.30;;;8.31;69.91;99651.72;4974253;28;20118;-85
2020/12/14 03:36:27;;;;;;;4.20;1.50;;;8.90;81.70;;;8.30;70.05;99641.88;4974396;28;20129;-84
2020/12/14 03:38:55;;;;;;;7.35;1.70;;;8.90;81.50;;;8.28;70.54;99638.53;4974266;28;20125;-85
2020/12/14 03:41:23;;;;;;;8.80;1.70;;;9.00;81.60;;;8.31;70.55;99627.31;4974576;28;20082;-84
2020/12/14 03:43:50;;;;;;;6.10;1.88;;;9.00;81.90;;;8.39;70.90;99643.47;4974217;28;20098;-85
2020/12/14 03:46:21;;;;;;;5.63;1.55;;;9.00;82.30;;;8.34;70.68;99641.34;4974423;28;20280;-84
2020/12/14 03:48:48;;;;;;;6.13;1.65;;;9.00;81.80;;;8.38;70.62;99641.78;4974638;28;20138;-84
2020/12/14 03:51:16;;;;;;;7.88;1.95;;;9.10;82.20;;;8.38;71.13;99642.63;4974305;28;20447;-84
2020/12/14 03:53:43;;;;;;;4.07;1.63;;;9.00;82.40;;;8.42;71.49;99640.41;4974018;28;20062;-84
2020/12/14 03:56:09;;;;;;;4.40;1.58;;;9.00;82.40;;;8.42;71.15;99643.13;4974073;28;20046;-84
2020/12/14 03:58:36;;;;;;;5.85;1.90;;;9.00;82.10;;;8.42;70.53;99645.81;4974369;28;20118;-84
2020/12/14 04:01:03;;;;;;;6.88;1.60;;;9.00;82.10;;;8.37;70.13;99645.53;4974293;28;20121;-84
2020/12/14 04:03:30;;;;;;;4.95;1.65;;;9.10;81.70;;;8.30;71.23;99650.03;4974121;28;20396;-84
2020/12/14 04:05:57;;;;;;;5.80;1.65;;;9.10;81.90;;;8.38;71.40;99652.63;4974076;28;20471;-84
2020/12/14 04:08:25;;;;;;;9.30;2.08;;;9.10;82.30;;;8.38;71.24;99656.19;4974254;28;20460;-84
2020/12/14 04:10:51;;;;;;;7.13;1.55;;;9.10;81.90;;;8.44;71.53;99653.78;4974015;28;20052;-84
2020/12/14 04:13:18;;;;;;;5.10;1.60;;;9.20;82.40;;;8.47;71.16;99661.50;4973419;28;20042;-84
2020/12/14 04:15:45;;;;;;;8.50;1.70;;;9.10;82.10;;;8.47;71.21;99667.75;4973937;28;20078;-84
2020/12/14 04:18:12;;;;;;;8.38;1.50;;;9.10;82.50;;;8.46;70.89;99657.97;4973674;28;20825;-84
2020/12/14 04:20:38;;;;;;;5.28;1.50;;;9.10;82.00;;;8.40;70.84;99656.00;4973752;28;20118;-84
2020/12/14 04:23:05;;;;;;;5.72;1.60;;;9.20;81.50;;;8.43;71.17;99655.63;4973787;28;20126;-84
2020/12/14 04:25:33;;;;;;;5.75;1.45;;;9.20;81.70;;;8.45;71.21;99669.81;4971988;28;20828;-84
2020/12/14 04:28:00;;;;;;;7.88;1.70;;;9.20;82.10;;;8.45;71.39;99664.41;4972239;28;20138;-84
2020/12/14 04:30:27;;;;;;;8.43;1.67;;;9.20;82.00;;;8.47;71.25;99666.94;4973222;28;20050;-85
2020/12/14 04:32:56;;;;;;;4.47;1.70;;;9.20;82.20;;;8.46;72.08;99667.97;4973752;28;20126;-85
2020/12/14 04:35:23;;;;;;;4.63;1.40;;;9.30;82.10;;;8.47;71.51;99665.06;4973075;28;20421;-85
2020/12/14 04:37:50;;;;;;;5.88;1.55;;;9.30;81.90;;;8.48;72.08;99658.59;4972179;28;20079;-84
2020/12/14 04:40:17;;;;;;;4.18;1.40;;;9.30;81.90;;;8.51;71.66;99658.22;4973580;28;20492;-85
2020/12/14 04:42:45;;;;;;;6.70;1.70;;;9.30;82.20;;;8.51;72.07;99652.81;4971836;28;20497;-84
2020/12/14 04:45:13;;;;;;;5.20;1.35;;;9.30;82.10;;;8.55;71.50;99656.81;4973194;28;20544;-84
2020/12/14 04:47:40;;;;;;;5.70;1.73;;;9.30;82.40;;;8.60;71.66;99661.66;4973077;28;20070;-84
2020/12/14 04:50:07;;;;;;;5.00;1.88;;;9.30;82.40;;;8.57;71.73;99662.06;4973047;28;20134;-84
2020/12/14 04:52:36;;;;;;;3.15;1.40;;;9.30;82.20;;;8.60;70.98;99657.09;4973196;28;20126;-85
2020/12/14 04:55:04;;;;;;;7.57;1.85;;;9.30;82.30;;;8.50;71.87;99661.97;4972703;28;20038;-84
2020/12/14 04:57:32;;;;;;;5.22;1.50;;;9.30;81.80;;;8.56;71.73;99652.22;4973198;28;20078;-84
2020/12/14 04:59:59;;;;;;;5.18;1.60;;;9.30;82.40;;;8.55;71.89;99645.97;4973452;28;20102;-84
2020/12/14 05:02:26;;;;;;;5.75;1.60;;;9.30;82.50;;;8.56;71.96;99652.22;4973089;28;20077;-85
2020/12/14 05:04:53;;;;;;;4.78;1.73;;;9.30;82.60;;;8.61;72.49;99647.91;4973054;28;20074;-82
2020/12/14 05:07:38;;;;;;;5.22;1.90;;;9.20;82.80;;;8.64;72.03;99656.69;4973303;28;20876;-85
2020/12/14 05:10:05;;;;;;;4.55;1.63;;;9.20;83.10;;;8.66;72.21;99657.31;4975965;28;20074;-84
2020/12/14 05:12:37;;;;;;;5.47;1.35;;;9.20;82.90;;;8.63;72.11;99655.84;4978695;28;20070;-85
2020/12/14 05:15:22;;;;;;;3.97;1.50;;;9.30;83.10;;;8.62;72.03;99654.16;4979490;28;20411;-85
2020/12/14 05:17:51;;;;;;;4.22;1.80;;;9.30;82.80;;;8.61;72.43;99647.91;4978520;28;20078;-84
2020/12/14 05:20:19;;;;;;;6.70;1.90;;;9.20;82.80;;;8.63;72.04;99636.03;4980242;28;20046;-84
2020/12/14 05:23:03;;;;;;;6.07;2.00;;;9.20;83.10;;;8.65;72.47;99636.69;4979720;28;20047;-84
2020/12/14 05:25:31;;;;;;;5.10;1.77;;;9.20;83.20;;;8.66;72.52;99639.16;4978905;28;20138;-84
2020/12/14 05:28:16;;;;;;;7.88;1.55;;;9.20;83.20;;;8.66;72.43;99628.31;4978047;28;20077;-84
2020/12/14 05:30:45;;;;;;;3.85;1.50;;;9.20;83.50;;;8.68;72.42;99628.13;4978867;28;20649;-84
2020/12/14 05:33:15;;;;;;;8.18;1.80;;;9.20;83.50;;;8.69;72.47;99624.41;4979283;28;20093;-84
2020/12/14 05:35:44;;;;;;;5.53;1.60;;;9.20;83.60;;;8.72;72.70;99621.28;4978512;28;20070;-84
2020/12/14 05:38:17;;;;;;;5.30;1.63;;;9.20;83.80;;;8.67;71.96;99623.75;4978199;28;20134;-84
2020/12/14 05:40:48;;;;;;;4.53;1.50;;;9.20;83.50;;;8.67;72.67;99623.75;4977906;28;20050;-84
2020/12/14 05:43:17;;;;;;;6.18;1.80;;;9.20;83.80;;;8.68;72.24;99630.84;4979330;28;20089;-84
2020/12/14 05:45:46;;;;;;;7.15;1.88;;;9.20;83.60;;;8.70;72.70;99628.78;4974967;28;20146;-85
2020/12/14 05:48:29;;;;;;;5.85;1.75;;;9.20;83.90;;;8.67;72.54;99623.75;4973566;28;20070;-84
2020/12/14 05:51:01;;;;;;;4.38;1.70;;;9.20;84.00;;;8.67;72.56;99631.91;4974960;28;20070;-85
2020/12/14 05:53:36;;;;;;;3.80;1.40;;;9.20;84.00;;;8.71;73.11;99635.88;4976990;28;20066;-84
2020/12/14 05:56:05;;;;;;;7.63;2.08;;;9.20;84.20;;;8.71;72.89;99633.19;4979952;28;20569;-84
2020/12/14 05:58:33;;;;;;;4.95;1.98;;;9.20;84.40;;;8.63;72.87;99627.91;4978394;28;20042;-84
2020/12/14 06:01:05;;;;;;;9.93;1.85;;;9.20;83.90;;;8.63;73.23;99619.75;4976565;28;20050;-84
2020/12/14 06:03:33;;;;;;;6.35;1.65;;;9.20;84.10;;;8.64;73.33;99624.13;4975272;28;20116;-84
2020/12/14 06:06:02;;;;;;;5.63;1.90;;;9.20;84.20;;;8.66;73.41;99624.78;4978878;28;20107;-84
2020/12/14 06:09:04;;;;;;;5.68;1.55;;;9.20;84.40;;;8.65;73.43;99626.66;4975123;28;20046;-84
2020/12/14 06:11:35;;;;;;;5.15;1.52;;;9.20;84.50;;;8.66;73.14;99612.03;4957341;28;20829;-85
2020/12/14 06:14:02;;;;;;;;;;;9.20;84.60;;;8.72;73.00;99618.56;4960238;28;20047;-85
2020/12/14 06:16:32;;;;;;;5.38;1.60;;;9.20;84.80;;;8.70;73.92;99634.19;4960067;28;19926;-84
2020/12/14 06:18:59;;;;;;;4.18;1.60;;;9.20;84.90;;;8.71;74.18;99619.63;4972394;28;20047;-83
2020/12/14 06:21:32;;;;;;;6.30;1.70;;;9.20;84.80;;;8.66;73.66;99624.78;4971364;28;20051;-83
2020/12/14 06:24:05;;;;;;;3.95;1.67;;;9.20;84.70;;;8.63;74.00;99606.19;4970119;28;20074;-83
2020/12/14 06:26:33;;;;;;;5.70;1.58;;;9.30;84.90;;;8.65;74.37;99621.22;4950840;28;20042;-83
2020/12/14 06:29:00;;;;;;;5.07;1.63;;;9.30;84.80;;;8.69;73.70;99617.09;4970401;28;20078;-82
2020/12/14 06:31:36;;;;;;;4.80;1.63;;;9.30;84.90;;;8.66;73.78;99617.47;4970619;28;20134;-83
2020/12/14 06:34:05;;;;;;;6.13;2.03;;;9.30;85.00;;;8.65;74.21;99625.81;4970663;28;20126;-84
2020/12/14 06:36:40;;;;;;;5.60;1.50;;;9.30;84.80;;;8.70;74.09;99626.06;4973734;28;20492;-84
2020/12/14 06:39:27;;;;;;;3.95;1.60;;;9.30;84.90;;;8.69;74.31;99627.09;4972567;28;20105;-83
2020/12/14 06:42:17;;;;;;;12.00;2.00;;;9.30;85.00;;;8.74;74.06;99627.38;4974728;28;20081;-83
2020/12/14 06:45:15;;;;;;;6.18;1.67;;;9.30;85.20;;;8.76;74.15;99628.03;4976321;28;20073;-83
2020/12/14 06:47:49;;;;;;;4.05;1.50;;;9.30;85.30;;;8.73;74.85;99639.25;4970492;28;20145;-83
2020/12/14 06:50:55;;;;;;;5.50;1.83;;;9.30;85.30;;;8.68;75.09;99614.56;4976123;28;20053;-85
2020/12/14 06:53:48;;;;;;;4.07;1.50;;;9.40;85.10;;;8.72;75.21;99614.00;4973366;28;20059;-84
2020/12/14 06:56:38;;;;;;;3.25;1.50;;;9.40;85.20;;;8.71;74.80;99625.03;4977436;28;20055;-84
2020/12/14 06:59:27;;;;;;;6.18;1.90;;;9.50;85.20;;;8.76;74.44;99622.59;4978646;28;20137;-84
2020/12/14 07:01:57;;;;;;;5.30;2.15;;;9.50;85.20;;;8.79;75.12;99616.75;4976974;28;20062;-84
2020/12/14 07:04:42;;;;;;;2.85;1.50;;;9.50;85.40;;;8.78;75.02;99626.78;4972325;28;20118;-83
2020/12/14 07:07:32;;;;;;;5.10;1.55;;;9.40;85.40;;;8.81;74.85;99620.13;4973805;28;20054;-83
2020/12/14 07:10:14;;;;;;;6.15;1.60;;;9.50;85.70;;;8.84;75.00;99621.63;4973791;28;20563;-84
2020/12/14 07:12:46;;;;;;;4.13;1.60;;;9.50;85.80;;;8.85;75.33;99620.56;4973531;28;20050;-84
2020/12/14 07:15:28;;;;;;;5.78;1.40;;;9.50;85.90;;;8.79;75.63;99624.91;4973367;28;20102;-83
2020/12/14 07:18:10;;;;;;;7.97;2.55;;;9.50;85.90;;;8.79;75.76;99616.75;4954708;29;20078;-83
2020/12/14 07:21:03;;;;;;;4.78;1.63;;;9.50;86.00;;;8.80;75.95;99624.72;4954431;29;20078;-83
2020/12/14 07:23:31;;;;;;;4.97;1.60;;;9.50;86.30;;;8.80;76.24;99629.31;4953951;29;20065;-84
2020/12/14 07:25:59;;;;;;;9.85;1.60;;;9.60;86.30;;;8.76;76.46;99634.28;4965267;28;20047;-84
2020/12/14 07:28:51;;;;;;;3.55;1.50;;;9.60;86.10;;;8.80;76.03;99634.72;4973597;28;20046;-84
2020/12/14 07:31:20;;;;;;;5.30;1.50;;;9.60;85.90;;;8.83;75.91;99652.47;4963927;28;20062;-83
2020/12/14 07:33:55;;;;;;;4.50;1.58;;;9.60;85.90;;;8.77;76.80;99662.22;4973123;28;20105;-83
2020/12/14 07:36:24;;;;;;;7.13;1.90;;;9.60;86.30;;;8.73;77.15;99653.63;4973456;28;20071;-84
2020/12/14 07:38:54;;;;;;;5.38;1.33;;;9.60;86.40;;;8.75;77.12;99661.59;4972967;28;20105;-83
2020/12/14 07:41:22;;;;;;;5.07;1.67;;;9.60;86.40;;;8.79;76.95;99671.84;4973116;28;20130;-83
2020/12/14 07:43:54;;;;;;;5.68;2.05;;;9.70;86.30;;;8.82;76.92;99667.94;4972793;28;20310;-83
2020/12/14 07:46:31;;;;;;;4.78;1.60;;;9.60;86.30;;;8.82;77.68;99665.22;4973047;28;20487;-83
2020/12/14 07:49:05;;;;;;;4.75;1.70;;;9.70;86.50;;;8.78;77.48;99669.34;4973236;28;20051;-83
2020/12/14 07:51:36;;;;;;;8.32;1.50;;;9.70;86.60;;;8.79;78.19;99666.41;4971763;28;20051;-84
2020/12/14 07:54:09;;;;;;;4.22;1.60;;;9.70;87.20;;;8.82;78.41;99672.53;4962155;28;20142;-83
2020/12/14 07:56:51;;;;;;;5.53;1.50;;;9.70;87.20;;;8.88;77.81;99663.59;4973342;28;20098;-88
2020/12/14 07:59:22;;;;;;;8.18;1.52;;;9.70;87.30;;;8.90;78.91;99667.78;4974228;28;20130;-88
2020/12/14 08:01:49;;;;;;;6.23;1.80;;;9.70;88.20;;;8.91;78.57;99674.91;4972974;28;20109;-88
2020/12/14 08:04:28;;;;;;;3.92;1.58;;;9.70;88.00;;;8.91;79.38;99674.03;4972564;28;20045;-88
2020/12/14 08:06:57;;;;;;;6.45;1.83;;;9.70;88.60;;;8.93;79.54;99683.69;4973763;28;20057;-87
2020/12/14 08:09:30;;;;;;;6.22;1.88;;;9.70;88.60;;;8.93;79.20;99689.13;4973906;28;20054;-87
2020/12/14 08:11:57;;;;;;;4.90;1.88;;;9.70;88.90;;;8.90;80.28;99692.22;4973885;28;20047;-88
2020/12/14 08:14:25;;;;;;;8.85;1.80;;;9.70;89.40;;;8.89;80.69;99682.41;4973769;28;20043;-88
2020/12/14 08:16:52;;;;;;;4.80;1.58;;;9.70;89.60;;;8.89;80.76;99693.25;4974007;28;20093;-88
2020/12/14 08:19:22;;;;;;;5.85;1.80;;;9.70;89.80;;;8.89;80.58;99693.25;4975707;28;20067;-91
2020/12/14 08:22:06;;;;;;;5.93;2.10;;;9.70;90.10;;;8.86;81.50;99692.81;4983388;28;20130;-91
2020/12/14 08:24:33;;;;;;;6.90;2.00;;;9.70;90.20;;;8.80;81.96;99694.41;4980900;28;20050;-92
2020/12/14 08:27:03;;;;;;;4.57;1.70;;;9.70;90.30;;;8.88;81.27;99713.28;4978000;28;20097;-90
2020/12/14 08:29:32;;;;;;;4.85;1.95;;;9.60;90.50;;;8.90;81.28;99703.06;5004542;23;20069;-84
2020/12/14 08:32:01;;;;;;;4.45;1.80;;;9.60;90.80;;;8.90;81.23;99700.34;4971588;28;20050;-83
2020/12/14 08:34:31;;;;;;;7.55;2.17;;;9.60;91.00;;;8.94;81.31;99707.06;4973357;28;20659;-84
2020/12/14 08:36:57;;;;;;;4.25;1.98;;;9.60;91.00;;;8.89;81.54;99695.97;4971969;28;20078;-84
2020/12/14 08:39:25;;;;;;;6.15;1.67;;;9.60;91.10;;;8.90;82.18;99697.63;4972949;28;20454;-84
2020/12/14 08:42:11;;;;;;;5.55;3.05;;;9.60;91.50;;;8.88;81.63;99691.56;4972834;28;20382;-84
2020/12/14 08:44:40;;;;;;;4.00;1.80;;;9.60;91.50;;;8.91;81.64;99707.47;4973116;28;20043;-85
2020/12/14 08:47:15;;;;;;;6.80;2.20;;;9.60;91.70;;;8.88;81.33;99697.00;4973575;28;20047;-84
2020/12/14 08:49:42;;;;;;;7.38;2.00;;;9.50;91.90;;;8.95;81.76;99707.94;4973243;28;20043;-84
2020/12/14 08:52:18;;;;;;;4.00;1.80;;;9.60;92.40;;;8.96;81.21;99729.41;4972689;28;20109;-83
2020/12/14 08:54:54;;;;;;;5.57;2.00;;;9.60;92.40;;;8.95;81.90;99733.19;4972345;28;20043;-84
2020/12/14 08:57:29;;;;;;;6.57;2.20;;;9.60;92.60;;;8.89;82.49;99733.97;4973106;28;20055;-84
2020/12/14 09:00:08;;;;;;;6.93;1.85;;;9.60;92.40;;;8.90;82.44;99748.34;4987311;28;20073;-84
2020/12/14 09:02:38;;;;;;;6.90;2.13;;;9.60;92.50;;;8.88;82.84;99747.72;4972218;28;20039;-84
2020/12/14 09:05:20;;;;;;;4.63;1.98;;;9.60;92.90;;;8.79;83.28;99755.13;4972307;28;20047;-84
2020/12/14 09:07:47;;;;;;;;;;;9.70;92.60;;;8.80;83.38;99745.97;4973376;28;20047;-84
2020/12/14 09:10:17;;;;;;;5.72;1.70;;;9.70;92.70;;;8.85;83.36;99748.09;4962872;28;19934;-84
2020/12/14 09:12:45;;;;;;;5.63;2.30;;;9.70;92.40;;;8.76;84.11;99739.25;4952055;29;20548;-84
2020/12/14 09:15:12;;;;;;;5.78;2.70;;;9.70;93.20;;;8.83;83.51;99752.88;4952846;28;20078;-84
2020/12/14 09:17:39;;;;;;;5.68;1.75;;;9.70;92.70;;;8.87;83.77;99751.44;4953598;28;20110;-84
2020/12/14 09:20:09;;;;;;;4.43;1.90;;;9.70;92.80;;;8.91;83.59;99759.03;4953452;28;20054;-84
2020/12/14 09:22:36;;;;;;;7.40;2.08;;;9.70;92.70;;;8.93;84.43;99761.53;4954828;28;20055;-84
2020/12/14 09:25:07;;;;;;;4.93;1.80;;;9.70;93.00;;;8.93;84.39;99754.25;4966232;28;20118;-86
2020/12/14 09:27:35;;;;;;;4.65;1.70;;;9.80;93.10;;;8.97;83.99;99744.69;4967292;28;20062;-85
2020/12/14 09:30:01;;;;;;;3.80;1.50;;;9.80;92.70;;;9.04;83.71;99754.75;4970615;28;20038;-84
2020/12/14 09:32:29;;;;;;;4.82;1.80;;;9.80;92.90;;;9.03;84.42;99753.09;4969983;28;20050;-86
2020/12/14 09:34:56;;;;;;;3.78;1.50;;;9.80;93.20;;;9.07;83.83;99752.50;4970432;28;20043;-85
2020/12/14 09:37:23;;;;;;;3.88;1.60;;;9.90;93.00;;;9.11;83.58;99761.94;4972202;28;20527;-85
2020/12/14 09:39:50;;;;;;;3.70;1.67;;;9.90;93.00;;;9.15;83.49;99762.38;4972367;28;20631;-84
2020/12/14 09:42:17;;;;;;;5.60;1.77;;;9.90;93.10;;;9.16;84.72;99764.91;4972026;28;20121;-85
2020/12/14 09:44:45;;;;;;;5.57;1.88;;;9.90;93.60;;;9.14;84.60;99755.28;4972042;28;20049;-83
2020/12/14 09:47:12;;;;;;;3.90;1.73;;;9.90;93.60;;;9.16;84.47;99758.66;4970937;28;20054;-85
2020/12/14 09:49:39;;;;;;;4.18;1.50;;;10.00;93.60;;;9.15;85.67;99762.38;4971164;28;20058;-85
2020/12/14 09:52:07;;;;;;;4.28;1.65;;;10.00;94.00;;;9.16;85.53;99766.78;4970763;28;20595;-84
2020/12/14 09:54:34;;;;;;;5.70;1.95;;;10.00;93.80;;;9.13;86.10;99764.47;4968643;28;20055;-84
2020/12/14 09:57:04;;;;;;;7.38;1.88;;;10.10;94.50;;;9.15;85.48;99760.50;4971605;28;20062;-85
2020/12/14 09:59:30;;;;;;;7.47;1.95;;;10.10;93.80;;;9.19;85.96;99764.53;4987717;28;20053;-83
2020/12/14 10:01:58;;;;;;;6.45;1.98;;;10.10;94.20;;;9.22;85.64;99766.00;4985958;28;20105;-84
2020/12/14 10:04:25;;;;;;;5.03;1.80;;;10.10;94.20;;;9.24;86.09;99757.69;4970865;28;20484;-83
2020/12/14 10:06:52;;;;;;;4.40;1.60;;;10.10;93.90;;;9.24;85.71;99763.94;4966205;28;20551;-84
2020/12/14 10:09:19;;;;;;;4.78;2.00;;;10.10;93.90;;;9.28;84.78;99767.09;4968014;28;20163;-84
2020/12/14 10:11:46;;;;;;;4.45;1.95;;;10.10;93.60;;;9.32;84.34;99758.38;4968346;28;20093;-84
2020/12/14 10:14:13;;;;;;;5.20;2.17;;;10.10;93.60;;;9.36;84.42;99775.09;4968241;28;20049;-84
2020/12/14 10:16:39;;;;;;;5.85;2.30;;;10.10;93.90;;;9.38;83.75;99768.44;4971817;28;20046;-83
2020/12/14 10:19:07;;;;;;;5.47;1.83;;;10.10;93.80;;;9.40;84.17;99765.53;4968861;28;20085;-83
2020/12/14 10:21:34;;;;;;;4.85;2.08;;;10.10;93.90;;;9.42;84.95;99768.88;4970122;28;20653;-83
2020/12/14 10:24:01;;;;;;;7.47;2.13;;;10.10;94.40;;;9.39;84.74;99775.56;4969566;28;20456;-84
2020/12/14 10:26:27;;;;;;;5.15;2.10;;;10.20;94.20;;;9.41;84.47;99772.66;4968754;28;20066;-83
2020/12/14 10:28:54;;;;;;;5.82;2.13;;;10.20;94.10;;;9.43;83.77;99772.47;4969557;28;20199;-83
2020/12/14 10:31:21;;;;;;;4.40;2.20;;;10.20;93.90;;;9.44;84.82;99769.53;4970929;28;20081;-84
2020/12/14 10:33:48;;;;;;;7.30;2.08;;;10.20;94.70;;;9.45;84.75;99778.53;4971188;28;20102;-83
2020/12/14 10:36:18;;;;;;;6.25;2.10;;;10.20;94.00;;;9.44;84.07;99787.72;4973072;28;20065;-83
2020/12/14 10:38:46;;;;;;;8.60;1.92;;;10.20;93.60;;;9.42;84.89;99785.19;4973219;28;20531;-85
2020/12/14 10:41:16;;;;;;;7.20;2.53;;;10.20;93.90;;;9.42;84.57;99776.22;4974270;28;20050;-84
2020/12/14 10:43:43;;;;;;;7.72;2.10;;;10.20;93.90;;;9.44;84.41;99787.72;4972626;28;20050;-83